x

Shumagin Islands - 85nm South Of Sand Point, Ak (46075) Wave Buoy

7:50 - Fri 18th Apr 2014 All times are UTC.

  • Sig Wave height 5.2ft
  • Peak Period 9s
  • Average Period 7s
  • Wind
    9mph
  • Sea Temp 41°f
  • Luft Temp 37°f
  • Sea Pressure 990.8mb

More Historic Weather Station data

Upgrade to MSW Pro to gain access to the past 30 days of data for over 8000 Wavebouys and Weather Stations around the globe.

Join Pro

Comparision Forecast

View Surf forecast
   
Fr 04/18 7:50 5ft 9s 7s 9
mph
990.8mb 41f 37f
6:50 5ft 8s 7s 9 13 mph 990.4mb 41f 37f
5:50 5ft 9s 6s 11 16 mph 990.3mb 41f 37f
4:50 5ft 9s 6s 11 13 mph 990mb 41f 35f
3:50 5ft 9s 7s 11 13 mph 989.7mb 41f 36f
2:50 5.5ft 8s 7s 7 9 mph 989.9mb 41f 35f
1:50 5ft 10s 7s 4 7 mph 989.9mb 41f 35f
12:50 5ft 8s 6s 4 7 mph 990.2mb 41f 34f
11:50 5.5ft 11s 7s 11 13 mph 990.5mb 42f 36f
10:50 6ft 10s 7s 9 13 mph 990.8mb 42f 35f
9:50 6.5ft 10s 7s 4 7 mph 991mb 42f 38f
8:50 7ft 10s 7s  -  2 mph 991.4mb 42f 37f
7:50 6ft 10s 7s 2 4 mph 991.8mb 42f 36f
6:50 7ft 9s 7s 11 13 mph 991.9mb 42f 38f
5:50 6ft 10s 8s 4 7 mph 991.9mb 42f 38f
4:50 6.5ft 10s 8s 4 7 mph 992.1mb 42f 39f
3:50 6.5ft 9s 7s 7
mph
992.3mb 42f 39f
2:50 6ft 10s 7s 7
mph
992.7mb 42f 39f
1:50 6ft 10s 7s 4 7 mph 993.2mb 42f 39f
12:50 6.5ft 10s 7s 4 7 mph 993.8mb 42f 39f
Do 04/17 11:50 6.5ft 10s 7s 7 9 mph 994.2mb 42f 39f
10:50 6.5ft 10s 7s 7 9 mph 994.7mb 42f 38f
9:50 6ft 8s 7s 4 7 mph 995.1mb 41f 39f
8:50 7.5ft 9s 7s 7 9 mph 995.5mb 41f 38f
7:50 7.5ft 9s 7s 7 9 mph 995.7mb 41f 38f
6:50 7.5ft 11s 8s 7 11 mph 996mb 41f 38f
5:50 7.5ft 9s 8s 7 11 mph 996.5mb 41f 38f
4:50 7ft 10s 8s 7 9 mph 996.7mb 41f 38f
3:50 7ft 9s 8s 7 9 mph 997mb 41f 36f
2:50 7ft 11s 8s 4 7 mph 997.4mb 41f 37f
1:50 7ft 11s 7s 9 11 mph 997.8mb 41f 38f
12:50 7ft 11s 7s 7 11 mph 998.2mb 41f 38f
11:50 7ft 11s 7s 2 4 mph 998.9mb 41f 37f
10:50 7.5ft 9s 7s 16 18 mph 999.5mb 41f 38f
9:50 8ft 10s 7s 4 7 mph 1000.1mb 41f 38f
8:50 7.5ft 11s 7s 7 9 mph 1000.3mb 41f 37f
7:50 8.5ft 9s 8s 9 11 mph 1000.7mb 41f 39f
6:50 8ft 11s 8s 9 11 mph 1000.9mb 41f 39f
5:50 8ft 11s 8s 9 13 mph 1000.9mb 41f 39f
4:50 8.5ft 12s 8s 7 9 mph 1001mb 41f 39f
3:50 9ft 12s 8s 9 11 mph 1001.4mb 41f 39f
2:50 8ft 9s 8s 11 13 mph 1001.6mb 41f 40f
1:50 8ft 10s 8s 11 13 mph 1001.7mb 41f 40f
12:50 8.5ft 13s 8s 11 13 mph 1002mb 41f 39f
Mi 04/16 11:50 9ft 11s 8s 11 13 mph 1002.3mb 41f 39f
10:50 8ft 11s 8s 16 18 mph 1002.6mb 41f 39f
9:50 9ft 11s 8s 11 13 mph 1002.7mb 41f 40f
8:50 10.5ft 11s 8s 11 13 mph 1003mb 41f 39f
7:50 10ft 11s 8s 13 18 mph 1003mb 41f 39f
6:50 11ft 12s 8s 4 7 mph 1003.1mb 41f 39f
5:50 12.5ft 12s 9s 11 16 mph 1003.1mb 41f 40f
4:50 11ft 13s 8s 11 16 mph 1003.2mb 41f 38f
3:50 11.5ft 12s 9s 9 11 mph 1003.2mb 41f 39f
2:50 11ft 13s 8s 7 13 mph 1003.3mb 41f 38f
1:50 11ft 14s 9s 13 18 mph 1003.5mb 41f 40f
12:50 11ft 12s 8s 18 20 mph 1003.6mb 41f 39f
11:50 9.5ft 12s 8s 13 20 mph 1003.8mb 41f 40f
10:50 9.5ft 11s 8s 13 16 mph 1004mb 41f 39f
9:50 11ft 12s 8s 13 18 mph 1004.2mb 41f 39f
8:50 10.5ft 11s 8s 16 20 mph 1004.3mb 41f 40f
7:50 10.5ft 11s 8s 16 18 mph 1004.5mb 41f 40f
6:50 11ft 11s 8s 16 18 mph 1004.4mb 41f 40f
5:50 9ft 11s 8s 13 16 mph 1004.4mb 41f 40f
4:50 9.5ft 10s 8s 13 16 mph 1004.3mb 41f 40f
3:50 7.5ft 11s 7s 16 18 mph 1004.3mb 41f 41f
2:50 7ft 9s 7s 13 18 mph 1004.2mb 41f 41f
1:50 7ft 10s 7s 13 18 mph 1004.3mb 41f 41f
12:50 7.5ft 11s 7s 13 18 mph 1004.3mb 41f 41f
Di 04/15 11:50 7ft 10s 7s 16 20 mph 1004.1mb 41f 40f
10:50 8ft 11s 7s 11 16 mph 1003.9mb 41f 40f
9:50 7.5ft 11s 7s 13 18 mph 1003.7mb 41f 41f
8:50 7.5ft 10s 7s 13 18 mph 1003.6mb 41f 41f
7:50 9ft 11s 7s 13 18 mph 1003.5mb 41f 41f
6:50 10ft 11s 7s 13 16 mph 1003.4mb 41f 41f
5:50 9.5ft 10s 7s 13 16 mph 1003.5mb 40f 41f
4:50 9.5ft 11s 7s 13 16 mph 1003.3mb 40f 41f
3:50 8.5ft 11s 7s 13 16 mph 1003.2mb 40f 40f
2:50 7.5ft 11s 6s 16 18 mph 1003.1mb 40f 40f
1:50 7.5ft 11s 7s 16 20 mph 1003.1mb 40f 40f
12:50 7.5ft 11s 6s 18 20 mph 1002.9mb 40f 40f
11:50 7.5ft 10s 6s 16 20 mph 1003mb 40f 40f
10:50 8ft 11s 7s 18 20 mph 1003.3mb 41f 40f
9:50 8ft 10s 7s 18 22 mph 1003.5mb 41f 40f
8:50 9ft 11s 7s 18 22 mph 1003.9mb 41f 40f
7:50 9ft 10s 8s 16 20 mph 1004mb 41f 39f
6:50 8ft 10s 7s 13 18 mph 1004.4mb 41f 39f
5:50 9ft 9s 7s 16 18 mph 1004.7mb 41f 39f
4:50 9ft 11s 7s 13 16 mph 1004.6mb 41f 39f
3:50 9ft 10s 7s 9 13 mph 1004.8mb 41f 40f
2:50 10ft 9s 8s 7 11 mph 1005.3mb 41f 40f
1:50 10ft 10s 8s 4 7 mph 1005.9mb 41f 40f
12:50 9.5ft 8s 8s 9 11 mph 1006.7mb 41f 40f
Mo 04/14 11:50 9ft 9s 7s 9 11 mph 1007.2mb 41f 40f
10:50 9.5ft 10s 8s 11 13 mph 1007.4mb 41f 41f
9:50 11ft 10s 8s 9 16 mph 1007.4mb 41f 40f